Time;durP1;ratioP1;P1;durP2;ratioP2;P2;SDS_P1;SDS_P2;PMS_P1;PMS_P2;Temp;Humidity;BMP_temperature;BMP_pressure;BME280_temperature;BME280_humidity;BME280_pressure;Samples;Min_cycle;Max_cycle;Signal;HPM_P1;HPM_P2
2020/12/08 00:02:13;;;;;;;16.45;11.48;;;;;;;6.76;73.27;99216.03;4161236;34;33085;-94
2020/12/08 00:04:47;;;;;;;17.42;11.65;;;;;;;6.59;73.60;99209.91;4164825;34;34250;-96
2020/12/08 00:07:20;;;;;;;18.95;12.10;;;;;;;6.75;72.92;99195.56;4153750;34;32902;-95
2020/12/08 00:10:05;;;;;;;19.50;11.20;;;;;;;6.58;73.75;99202.03;4188390;34;33198;-94
2020/12/08 00:12:51;;;;;;;15.48;11.20;;;;;;;6.77;72.99;99200.78;4204689;34;34551;-93
2020/12/08 00:15:43;;;;;;;15.43;10.15;;;;;;;6.53;73.45;99216.81;4202391;34;32809;-93
2020/12/08 00:18:16;;;;;;;15.63;10.77;;;;;;;5.92;75.83;99213.75;4193845;34;32354;-94
2020/12/08 00:20:54;;;;;;;17.75;11.60;;;;;;;6.66;73.57;99221.63;4194319;34;35210;-94
2020/12/08 00:23:26;;;;;;;17.75;10.55;;;;;;;6.99;72.69;99216.09;4191102;34;33035;-94
2020/12/08 00:26:01;;;;;;;16.77;10.77;;;;;;;6.92;72.31;99214.28;4191061;34;34629;-95
2020/12/08 00:28:34;;;;;;;17.17;10.73;;;;;;;6.86;72.49;99210.44;4192054;34;34366;-95
2020/12/08 00:31:26;;;;;;;19.47;11.50;;;;;;;7.09;71.93;99215.03;4225642;33;33165;-94
2020/12/08 00:33:59;;;;;;;17.17;10.45;;;;;;;6.83;72.40;99217.00;4207996;34;33412;-93
2020/12/08 00:36:37;;;;;;;16.42;9.75;;;;;;;6.81;72.50;99224.41;4192833;34;33315;-94
2020/12/08 00:39:09;;;;;;;15.68;11.18;;;;;;;7.08;71.73;99216.87;4205587;34;32381;-93
2020/12/08 00:41:47;;;;;;;18.92;10.55;;;;;;;6.91;71.97;99220.66;4205688;34;33053;-96
2020/12/08 00:44:31;;;;;;;15.10;10.27;;;;;;;6.63;73.14;99216.63;4203075;34;34224;-93
2020/12/08 00:47:04;;;;;;;15.60;10.88;;;;;;;6.25;74.03;99220.94;4199501;34;33389;-96
2020/12/08 00:49:48;;;;;;;17.02;10.65;;;;;;;5.99;75.15;99216.66;4211125;34;32447;-96
2020/12/08 00:52:27;;;;;;;21.77;11.43;;;;;;;6.52;73.50;99217.81;4183853;34;32879;-96
2020/12/08 00:55:11;;;;;;;14.52;10.18;;;;;;;6.07;75.10;99215.78;4201632;34;32811;-95
2020/12/08 00:57:47;;;;;;;16.85;11.35;;;;;;;5.63;77.26;99225.03;4205342;34;33887;-96
2020/12/08 01:00:31;;;;;;;15.60;10.45;;;;;;;6.17;75.36;99227.16;4205261;34;32619;-96
2020/12/08 01:03:16;;;;;;;14.77;10.77;;;;;;;6.54;73.85;99226.53;4204422;34;33083;-96
2020/12/08 01:06:01;;;;;;;25.50;11.20;;;;;;;5.82;76.09;99227.38;4201062;34;33314;-96
2020/12/08 01:08:33;;;;;;;18.58;11.63;;;;;;;6.28;74.50;99223.28;4190312;34;33531;-95
2020/12/08 01:11:18;;;;;;;18.12;10.65;;;;;;;5.88;75.96;99223.16;4221361;33;32846;-94
2020/12/08 01:13:57;;;;;;;17.52;11.05;;;;;;;6.25;74.83;99224.44;4202143;34;35332;-93
2020/12/08 01:16:44;;;;;;;18.27;10.98;;;;;;;6.32;74.63;99219.25;4218004;33;32661;-94
2020/12/08 01:19:29;;;;;;;16.05;10.57;;;;;;;6.15;75.34;99219.28;4205639;34;33095;-94
2020/12/08 01:22:13;;;;;;;14.45;10.13;;;;;;;6.35;74.49;99208.16;4239611;33;32722;-96
2020/12/08 01:24:58;;;;;;;19.12;10.43;;;;;;;6.03;74.82;99215.28;4216693;33;34497;-92
2020/12/08 01:27:42;;;;;;;18.25;11.65;;;;;;;5.99;75.22;99204.06;4208460;33;32664;-95
2020/12/08 01:30:27;;;;;;;21.35;12.20;;;;;;;5.90;76.07;99201.53;4204778;34;33453;-94
2020/12/08 01:33:11;;;;;;;21.87;11.00;;;;;;;5.97;75.88;99203.41;4196207;34;32312;-95
2020/12/08 01:35:46;;;;;;;18.70;10.90;;;;;;;6.31;74.30;99196.91;4202706;34;34169;-94
2020/12/08 01:38:21;;;;;;;27.70;13.45;;;;;;;6.42;73.79;99209.16;4207606;34;34826;-95
2020/12/08 01:41:06;;;;;;;23.20;11.85;;;;;;;6.17;74.82;99205.69;4186013;34;32935;-95
2020/12/08 01:43:58;;;;;;;20.55;12.35;;;;;;;6.19;75.02;99212.56;4199551;34;35008;-94
2020/12/08 01:46:48;;;;;;;17.62;12.77;;;;;;;5.92;75.79;99200.34;4197230;34;33804;-95
2020/12/08 01:49:21;;;;;;;21.08;13.07;;;;;;;5.95;75.58;99207.22;4190599;34;33527;-95
2020/12/08 01:52:05;;;;;;;20.85;14.18;;;;;;;5.75;76.60;99207.59;4178693;34;33748;-93
2020/12/08 01:54:51;;;;;;;22.98;13.65;;;;;;;5.96;76.14;99214.28;4187673;34;32686;-94
2020/12/08 01:58:20;;;;;;;22.50;13.45;;;;;;;6.09;75.13;99214.63;4195471;34;34572;-96
2020/12/08 02:01:06;;;;;;;21.08;14.40;;;;;;;5.98;76.05;99217.66;4216283;33;33130;-95
2020/12/08 02:03:56;;;;;;;22.30;14.32;;;;;;;5.98;75.75;99209.59;4233765;33;34862;-96
2020/12/08 02:06:41;;;;;;;25.65;13.90;;;;;;;6.19;75.30;99206.34;4197775;34;33322;-93
2020/12/08 02:09:37;;;;;;;23.25;14.38;;;;;;;5.90;75.92;99217.63;4172722;34;33279;-96
2020/12/08 02:12:45;;;;;;;24.30;15.27;;;;;;;5.82;76.14;99219.31;4181803;34;20122;-96
2020/12/08 02:15:19;;;;;;;22.37;13.68;;;;;;;5.96;75.95;99215.09;4189877;34;33900;-96
2020/12/08 02:18:04;;;;;;;25.58;15.27;;;;;;;5.94;76.22;99216.28;4171952;34;32394;-95
2020/12/08 02:20:38;;;;;;;19.02;13.27;;;;;;;5.60;77.44;99217.34;4162845;34;33835;-95
2020/12/08 02:23:23;;;;;;;24.30;13.85;;;;;;;6.01;75.80;99226.19;4185789;34;33461;-96
2020/12/08 02:26:08;;;;;;;24.95;14.30;;;;;;;5.54;77.17;99220.66;4168158;34;33161;-96
2020/12/08 02:28:46;;;;;;;21.95;14.15;;;;;;;5.59;77.46;99221.84;4185160;34;32423;-96
2020/12/08 02:31:31;;;;;;;20.40;12.82;;;;;;;6.35;74.78;99232.31;4189381;34;32736;-96
2020/12/08 02:34:16;;;;;;;19.60;12.05;;;;;;;6.66;73.76;99229.69;4132017;34;33122;-96
2020/12/08 02:37:01;;;;;;;26.40;12.80;;;;;;;6.59;73.77;99222.50;4144048;34;33618;-96
2020/12/08 02:39:49;;;;;;;25.35;13.77;;;;;;;6.32;74.75;99212.03;4150496;34;32119;-96
2020/12/08 02:42:44;;;;;;;21.65;12.70;;;;;;;6.14;75.07;99219.47;4133907;34;32946;-95
2020/12/08 02:45:28;;;;;;;21.30;12.73;;;;;;;5.61;76.84;99210.94;4199844;34;33826;-96
2020/12/08 02:48:13;;;;;;;20.27;12.70;;;;;;;5.73;76.56;99217.63;4179751;34;32956;-96
2020/12/08 02:50:58;;;;;;;18.25;12.80;;;;;;;6.19;74.73;99222.47;4197927;34;35559;-96
2020/12/08 02:53:46;;;;;;;22.85;13.13;;;;;;;6.48;73.56;99221.88;4195609;34;32159;-96
2020/12/08 02:56:31;;;;;;;18.08;13.07;;;;;;;6.49;73.61;99215.47;4197747;34;33611;-96
2020/12/08 02:59:16;;;;;;;19.92;13.35;;;;;;;6.68;73.18;99216.09;4196024;34;33167;-96
2020/12/08 03:02:01;;;;;;;21.48;13.62;;;;;;;6.58;73.55;99212.78;4218702;33;34260;-96
2020/12/08 03:04:48;;;;;;;19.70;13.18;;;;;;;6.46;73.81;99210.44;4211146;34;32597;-95
2020/12/08 03:07:22;;;;;;;21.02;13.80;;;;;;;5.79;76.17;99211.62;4204141;34;33825;-94
2020/12/08 03:10:09;;;;;;;18.17;13.70;;;;;;;5.76;76.36;99209.28;4170761;34;33083;-96
2020/12/08 03:12:54;;;;;;;23.23;12.52;;;;;;;5.47;77.46;99218.66;4221414;33;33020;-96
2020/12/08 03:15:39;;;;;;;16.10;11.43;;;;;;;5.77;76.23;99240.44;4189580;34;33341;-96
2020/12/08 03:18:23;;;;;;;16.52;10.65;;;;;;;6.05;74.82;99237.44;4194677;34;32753;-93
2020/12/08 03:20:59;;;;;;;14.90;11.20;;;;;;;5.59;76.36;99234.41;4196250;34;33429;-94
2020/12/08 03:23:31;;;;;;;16.92;10.60;;;;;;;5.70;76.35;99235.91;4191759;34;33961;-95
2020/12/08 03:26:06;;;;;;;21.92;10.52;;;;;;;5.85;75.71;99223.50;4191888;34;33302;-96
2020/12/08 03:28:38;;;;;;;14.95;10.93;;;;;;;5.51;76.83;99212.94;4191358;34;33519;-96
2020/12/08 03:31:23;;;;;;;16.67;11.30;;;;;;;5.44;77.18;99213.63;4211107;34;33769;-96
2020/12/08 03:34:07;;;;;;;13.50;10.68;;;;;;;5.63;76.75;99233.09;4225840;33;32889;-92
2020/12/08 03:36:58;;;;;;;15.60;10.95;;;;;;;5.52;76.44;99231.53;4226437;33;32872;-95
2020/12/08 03:39:43;;;;;;;16.02;11.38;;;;;;;5.63;76.75;99230.41;4219268;33;32872;-96
2020/12/08 03:42:30;;;;;;;19.12;11.85;;;;;;;5.82;75.74;99227.38;4196352;34;32721;-94
2020/12/08 03:45:14;;;;;;;20.20;12.32;;;;;;;5.90;75.61;99225.66;4217030;33;32034;-94
2020/12/08 03:47:58;;;;;;;18.45;13.15;;;;;;;5.46;76.74;99235.75;4203443;34;33123;-94
2020/12/08 03:50:43;;;;;;;15.55;11.75;;;;;;;5.63;76.59;99241.13;4212603;34;33025;-95
2020/12/08 03:53:20;;;;;;;21.15;13.50;;;;;;;5.84;75.98;99240.59;4220056;34;34534;-95
2020/12/08 03:56:08;;;;;;;22.67;13.07;;;;;;;5.92;75.50;99251.31;4203457;34;32756;-96
2020/12/08 03:58:53;;;;;;;15.13;11.40;;;;;;;6.05;74.66;99258.88;4200695;34;32996;-96
2020/12/08 04:01:26;;;;;;;15.95;12.05;;;;;;;6.31;74.12;99255.13;4190900;34;32977;-95
2020/12/08 04:04:11;;;;;;;24.85;13.43;;;;;;;6.12;74.36;99251.84;4210383;34;33591;-94
2020/12/08 04:06:56;;;;;;;22.27;12.37;;;;;;;6.01;74.56;99261.06;4191555;34;32471;-94
2020/12/08 04:09:44;;;;;;;18.50;11.50;;;;;;;5.68;75.55;99259.38;4203355;34;33654;-95
2020/12/08 04:12:38;;;;;;;19.67;11.48;;;;;;;5.84;75.32;99257.53;4193281;34;32818;-96
2020/12/08 04:15:23;;;;;;;15.20;11.70;;;;;;;6.15;74.09;99256.00;4190073;34;32892;-95
2020/12/08 04:18:08;;;;;;;13.70;10.40;;;;;;;6.45;73.74;99250.91;4199285;34;32898;-95
2020/12/08 04:20:55;;;;;;;17.20;12.37;;;;;;;6.35;73.73;99259.16;4193365;34;34305;-93
2020/12/08 04:23:39;;;;;;;21.70;12.73;;;;;;;6.40;73.68;99248.72;4233913;33;32922;-96
2020/12/08 04:26:24;;;;;;;20.15;13.27;;;;;;;6.34;73.81;99254.78;4207141;34;32639;-95
2020/12/08 04:28:58;;;;;;;20.92;13.25;;;;;;;6.09;74.72;99259.38;4205415;34;34557;-96
2020/12/08 04:31:43;;;;;;;17.60;13.30;;;;;;;6.05;74.49;99264.25;4175915;34;32603;-94
2020/12/08 04:34:15;;;;;;;19.60;13.75;;;;;;;6.30;74.26;99261.50;4185068;34;34632;-94
2020/12/08 04:36:50;;;;;;;27.73;13.38;;;;;;;6.24;74.16;99252.28;4159258;34;35106;-94
2020/12/08 04:39:22;;;;;;;21.12;12.98;;;;;;;6.03;75.09;99260.88;4158883;34;33226;-93
2020/12/08 04:41:56;;;;;;;18.25;12.10;;;;;;;5.92;75.48;99255.84;4175138;34;32826;-95
2020/12/08 04:44:29;;;;;;;19.83;12.63;;;;;;;5.82;76.04;99248.81;4176833;34;33167;-96
2020/12/08 04:47:24;;;;;;;20.40;13.10;;;;;;;5.76;76.15;99259.38;4215328;34;32795;-96
2020/12/08 04:50:03;;;;;;;23.48;12.37;;;;;;;6.09;74.91;99267.41;4209807;34;33607;-96
2020/12/08 04:52:50;;;;;;;16.75;12.30;;;;;;;6.13;74.51;99269.59;4181497;34;32960;-96
2020/12/08 04:55:22;;;;;;;22.15;13.93;;;;;;;5.74;75.88;99261.41;4202750;34;32864;-92
2020/12/08 04:57:55;;;;;;;21.35;14.30;;;;;;;5.38;77.31;99270.59;4191896;34;33507;-94
2020/12/08 05:00:28;;;;;;;24.15;15.20;;;;;;;5.51;77.04;99277.28;4203652;34;34534;-95
2020/12/08 05:03:13;;;;;;;29.08;14.50;;;;;;;5.91;75.80;99275.63;4216131;34;34765;-96
2020/12/08 05:05:46;;;;;;;22.00;14.57;;;;;;;5.12;78.62;99281.44;4207707;34;33641;-94
2020/12/08 05:08:20;;;;;;;21.42;13.38;;;;;;;5.40;77.80;99275.78;4196676;34;34099;-93
2020/12/08 05:10:53;;;;;;;26.12;13.65;;;;;;;5.54;76.90;99279.63;4230135;33;33503;-96
2020/12/08 05:13:38;;;;;;;21.25;12.48;;;;;;;5.71;76.45;99285.88;4197957;34;32648;-95
2020/12/08 05:16:10;;;;;;;24.73;12.88;;;;;;;5.65;76.83;99288.19;4186753;34;32640;-93
2020/12/08 05:18:44;;;;;;;22.35;13.32;;;;;;;5.57;77.33;99284.66;4272288;28;32839;-96
2020/12/08 05:21:22;;;;;;;23.23;13.05;;;;;;;5.82;76.13;99289.06;4204897;34;32719;-90
2020/12/08 05:24:01;;;;;;;23.65;12.93;;;;;;;5.41;76.99;99286.31;4327536;28;34473;-95
2020/12/08 05:26:33;;;;;;;24.65;15.70;;;;;;;5.07;78.06;99279.22;4205194;34;34793;-93
2020/12/08 05:29:07;;;;;;;24.00;14.65;;;;;;;5.40;77.41;99286.50;4195466;34;33591;-94
2020/12/08 05:31:39;;;;;;;19.15;12.70;;;;;;;5.63;76.56;99290.22;4189633;34;33074;-94
2020/12/08 05:34:25;;;;;;;21.55;12.98;;;;;;;4.74;79.52;99300.53;4215727;34;33370;-94
2020/12/08 05:36:57;;;;;;;24.98;13.80;;;;;;;4.77;79.53;99308.25;4228880;33;34022;-96
2020/12/08 05:39:31;;;;;;;21.80;13.32;;;;;;;5.15;78.38;99307.03;4218098;34;33701;-95
2020/12/08 05:42:09;;;;;;;22.35;14.10;;;;;;;5.12;78.17;99309.03;4207360;34;33110;-96
2020/12/08 05:44:45;;;;;;;;;;;;;;;5.37;77.24;99306.41;4207283;34;34491;-96
2020/12/08 05:47:19;;;;;;;16.73;11.50;;;;;;;5.24;77.77;99308.72;4207520;34;33157;-96
2020/12/08 05:50:15;;;;;;;21.27;12.77;;;;;;;4.92;78.31;99312.97;4177178;34;33742;-95
2020/12/08 05:52:53;;;;;;;21.48;13.27;;;;;;;4.82;79.08;99313.13;4162394;34;34490;-95
2020/12/08 05:55:38;;;;;;;18.95;11.95;;;;;;;5.11;78.10;99317.25;4140195;34;32567;-93
2020/12/08 05:58:12;;;;;;;22.37;12.63;;;;;;;4.86;78.39;99322.50;4150819;34;33830;-95
2020/12/08 06:01:02;;;;;;;22.90;12.63;;;;;;;4.74;78.93;99316.59;4173491;34;33246;-94
2020/12/08 06:04:20;;;;;;;22.80;12.63;;;;;;;5.13;77.50;99324.13;4171740;34;34677;-96
2020/12/08 06:06:55;;;;;;;26.62;14.50;;;;;;;5.35;76.62;99318.31;4176090;34;33170;-96
2020/12/08 06:10:11;;;;;;;33.45;16.33;;;;;;;5.42;76.37;99322.84;4199032;34;35506;-95
2020/12/08 06:12:43;;;;;;;21.02;14.05;;;;;;;5.22;77.22;99324.13;4189599;34;33966;-95
2020/12/08 06:15:40;;;;;;;20.83;14.90;;;;;;;5.35;76.74;99319.16;4203348;34;33984;-95
2020/12/08 06:18:12;;;;;;;23.50;16.00;;;;;;;5.00;78.48;99330.91;4172006;34;32615;-96
2020/12/08 06:20:57;;;;;;;22.17;15.60;;;;;;;5.01;78.55;99335.28;4170568;34;32648;-94
2020/12/08 06:23:30;;;;;;;22.17;15.02;;;;;;;4.92;78.82;99340.59;4173417;34;34436;-96
2020/12/08 06:26:37;;;;;;;24.02;15.68;;;;;;;5.12;78.08;99341.19;4201730;28;33089;-95
2020/12/08 06:29:10;;;;;;;23.90;16.70;;;;;;;4.72;79.59;99345.37;4199148;33;34497;-95
2020/12/08 06:31:56;;;;;;;23.77;15.25;;;;;;;5.01;78.16;99341.47;4186610;34;33379;-95
2020/12/08 06:34:31;;;;;;;24.85;16.15;;;;;;;5.30;77.16;99349.12;4204378;34;33538;-93
2020/12/08 06:37:08;;;;;;;24.65;17.23;;;;;;;5.19;77.25;99361.97;4204028;34;33154;-93
2020/12/08 06:39:40;;;;;;;23.98;15.50;;;;;;;4.99;78.54;99372.94;4192261;34;34115;-95
2020/12/08 06:42:14;;;;;;;21.73;15.38;;;;;;;5.66;75.82;99370.31;4179095;34;34447;-95
2020/12/08 06:44:46;;;;;;;25.90;16.40;;;;;;;5.33;76.76;99369.41;4192062;34;33085;-96
2020/12/08 06:47:34;;;;;;;26.80;16.50;;;;;;;5.25;76.99;99364.00;4182574;34;32481;-95
2020/12/08 06:50:07;;;;;;;25.33;16.02;;;;;;;5.22;77.26;99372.38;4192640;34;33597;-95
2020/12/08 06:52:50;;;;;;;26.90;16.77;;;;;;;4.71;78.98;99359.75;4190921;34;34345;-93
2020/12/08 06:55:23;;;;;;;26.75;18.10;;;;;;;4.76;78.93;99349.41;4191892;34;34406;-94
2020/12/08 06:58:05;;;;;;;25.88;15.98;;;;;;;4.54;79.98;99333.91;4191972;34;33530;-95
2020/12/08 07:00:38;;;;;;;29.77;15.48;;;;;;;4.56;79.80;99334.56;4180400;34;33998;-96
2020/12/08 07:03:11;;;;;;;26.12;15.10;;;;;;;4.79;78.35;99353.63;4189245;34;33855;-90
2020/12/08 07:05:44;;;;;;;22.50;14.60;;;;;;;4.76;78.00;99359.25;4191511;34;35117;-96
2020/12/08 07:08:16;;;;;;;25.67;17.02;;;;;;;5.10;77.16;99364.62;4191444;34;34120;-94
2020/12/08 07:10:49;;;;;;;27.52;18.08;;;;;;;4.72;78.43;99349.91;4188062;34;35449;-93
2020/12/08 07:13:21;;;;;;;25.80;17.73;;;;;;;4.94;77.93;99354.69;4189722;34;33876;-95
2020/12/08 07:15:54;;;;;;;29.23;16.30;;;;;;;4.62;78.35;99360.69;4188822;34;34580;-92
2020/12/08 07:18:30;;;;;;;24.27;14.77;;;;;;;4.34;79.44;99368.03;4200581;34;33229;-95
2020/12/08 07:21:05;;;;;;;29.75;16.17;;;;;;;4.59;78.27;99366.38;4169054;34;33936;-91
2020/12/08 07:23:41;;;;;;;31.17;16.00;;;;;;;4.74;77.90;99354.06;4201733;34;33703;-94
2020/12/08 07:26:15;;;;;;;27.50;16.20;;;;;;;4.92;77.22;99358.50;4201636;34;34214;-94
2020/12/08 07:28:48;;;;;;;31.20;15.05;;;;;;;5.01;76.41;99364.75;4194620;34;33504;-94
2020/12/08 07:31:23;;;;;;;26.58;14.63;;;;;;;5.12;76.11;99369.84;4187530;34;33033;-92
2020/12/08 07:34:13;;;;;;;27.75;15.13;;;;;;;4.60;77.28;99368.06;4199786;34;34605;-93
2020/12/08 07:36:45;;;;;;;31.17;16.27;;;;;;;4.58;77.39;99359.31;4192188;34;33731;-95
2020/12/08 07:39:20;;;;;;;29.95;16.02;;;;;;;4.79;77.23;99361.66;4192594;34;32685;-95
2020/12/08 07:42:02;;;;;;;35.28;15.50;;;;;;;4.65;77.55;99368.41;4181317;34;33056;-96
2020/12/08 07:44:56;;;;;;;29.85;15.55;;;;;;;5.18;75.77;99377.22;4189344;34;32828;-94
2020/12/08 07:47:28;;;;;;;29.65;16.08;;;;;;;5.22;75.76;99377.72;4179628;34;32556;-93
2020/12/08 07:50:03;;;;;;;27.48;16.27;;;;;;;4.87;76.57;99372.38;4189344;34;33339;-96
2020/12/08 07:52:35;;;;;;;36.40;16.80;;;;;;;4.47;77.88;99381.03;4188645;34;34155;-95
2020/12/08 07:55:08;;;;;;;32.08;16.75;;;;;;;4.67;77.82;99385.19;4165511;34;34002;-94
2020/12/08 07:57:40;;;;;;;40.38;16.87;;;;;;;5.04;76.33;99385.84;4178128;34;33288;-93
2020/12/08 08:00:13;;;;;;;31.73;18.33;;;;;;;5.23;75.79;99390.13;4180697;34;32867;-95
2020/12/08 08:02:47;;;;;;;41.08;17.52;;;;;;;5.05;76.10;99399.09;4176428;34;34191;-93
2020/12/08 08:05:19;;;;;;;32.03;16.08;;;;;;;5.37;75.16;99399.37;4180378;34;34824;-96
2020/12/08 08:08:07;;;;;;;32.05;17.67;;;;;;;5.60;74.59;99396.97;4181884;34;33319;-94
2020/12/08 08:10:39;;;;;;;40.78;16.00;;;;;;;5.07;76.03;99398.94;4197786;34;32423;-93
2020/12/08 08:13:20;;;;;;;38.08;16.45;;;;;;;5.39;75.37;99408.97;4205022;34;33469;-93
2020/12/08 08:15:52;;;;;;;38.03;18.85;;;;;;;5.01;76.04;99405.75;4190925;34;33382;-93
2020/12/08 08:18:24;;;;;;;34.35;17.00;;;;;;;5.21;75.81;99409.06;4185956;34;33491;-95
2020/12/08 08:20:59;;;;;;;33.47;17.50;;;;;;;5.23;75.82;99408.88;4195687;34;34324;-93
2020/12/08 08:23:32;;;;;;;31.37;17.80;;;;;;;5.33;75.81;99409.59;4183941;34;33423;-92
2020/12/08 08:26:08;;;;;;;31.20;18.23;;;;;;;5.56;75.32;99417.06;4182104;34;33905;-93
2020/12/08 08:29:19;;;;;;;38.33;18.65;;;;;;;5.60;74.84;99426.47;4203864;34;35185;-93
2020/12/08 08:31:51;;;;;;;40.10;18.75;;;;;;;4.92;77.36;99420.13;4180191;34;33591;-94
2020/12/08 08:34:25;;;;;;;39.60;22.35;;;;;;;5.15;76.74;99416.88;4181584;34;33754;-91
2020/12/08 08:36:57;;;;;;;39.17;20.37;;;;;;;4.99;77.03;99425.69;4179418;34;33555;-92
2020/12/08 08:39:30;;;;;;;38.25;20.02;;;;;;;5.39;75.95;99426.84;4190137;34;32733;-92
2020/12/08 08:42:03;;;;;;;44.17;20.00;;;;;;;5.43;75.64;99425.53;4188088;34;33766;-93
2020/12/08 08:44:35;;;;;;;32.88;17.92;;;;;;;5.26;75.92;99416.59;4201058;34;33508;-92
2020/12/08 08:47:07;;;;;;;29.63;14.98;;;;;;;4.98;76.12;99408.75;4199009;34;35504;-95
2020/12/08 08:49:44;;;;;;;25.92;14.90;;;;;;;4.97;75.67;99415.13;4176534;34;35030;-95
2020/12/08 08:52:16;;;;;;;22.60;14.48;;;;;;;5.24;74.94;99407.88;4166220;34;33747;-91
2020/12/08 08:54:49;;;;;;;18.65;12.70;;;;;;;5.21;74.53;99395.66;4185892;34;33933;-94
2020/12/08 08:57:21;;;;;;;18.62;13.45;;;;;;;5.16;74.72;99394.44;4175332;34;35870;-91
2020/12/08 08:59:54;;;;;;;15.85;10.80;;;;;;;5.08;75.06;99396.09;4187784;34;33723;-93
2020/12/08 09:02:26;;;;;;;16.12;11.05;;;;;;;5.46;74.13;99391.22;4174771;34;32513;-95
2020/12/08 09:05:00;;;;;;;12.77;10.30;;;;;;;5.41;74.20;99392.72;4196690;34;35317;-95
2020/12/08 09:07:33;;;;;;;17.73;10.40;;;;;;;4.88;75.47;99383.94;4186946;34;34766;-95
2020/12/08 09:10:08;;;;;;;12.77;9.93;;;;;;;5.30;74.62;99396.53;4176296;34;33795;-93
2020/12/08 09:12:40;;;;;;;11.40;8.98;;;;;;;5.26;74.35;99395.16;4187046;34;33234;-95
2020/12/08 09:15:18;;;;;;;11.27;9.15;;;;;;;5.35;74.32;99391.50;4188953;34;33972;-95
2020/12/08 09:17:50;;;;;;;12.85;10.43;;;;;;;5.45;73.68;99389.53;4176955;34;34254;-95
2020/12/08 09:20:23;;;;;;;14.30;11.55;;;;;;;5.74;73.09;99390.94;4178349;34;33043;-96
2020/12/08 09:22:55;;;;;;;10.60;9.38;;;;;;;6.08;72.30;99399.91;4187549;34;33503;-95
2020/12/08 09:25:42;;;;;;;13.15;9.52;;;;;;;5.68;73.36;99415.75;4206082;34;33236;-96
2020/12/08 09:28:15;;;;;;;10.20;8.70;;;;;;;5.99;72.01;99409.81;4202799;34;33102;-94
2020/12/08 09:30:49;;;;;;;12.88;8.77;;;;;;;6.03;71.74;99424.53;4190551;34;35400;-95
2020/12/08 09:33:21;;;;;;;10.95;9.35;;;;;;;5.96;71.79;99420.84;4203687;34;33784;-95
2020/12/08 09:36:08;;;;;;;12.10;9.10;;;;;;;6.22;71.47;99425.25;4188646;34;34133;-93
2020/12/08 09:38:41;;;;;;;18.05;9.95;;;;;;;6.04;71.51;99418.19;4178799;34;34343;-93
2020/12/08 09:41:14;;;;;;;13.68;10.40;;;;;;;6.60;70.62;99409.44;4183477;34;34281;-96
2020/12/08 09:43:46;;;;;;;14.00;10.25;;;;;;;5.64;72.89;99403.66;4179411;34;34521;-91
2020/12/08 09:46:19;;;;;;;13.82;10.88;;;;;;;5.82;72.56;99396.34;4167505;34;35469;-96
2020/12/08 09:48:51;;;;;;;16.85;12.60;;;;;;;5.94;72.82;99387.94;4192118;34;32716;-96
2020/12/08 09:51:37;;;;;;;18.92;12.73;;;;;;;6.25;72.25;99381.97;4187184;34;33346;-93
2020/12/08 09:54:10;;;;;;;18.70;13.77;;;;;;;5.98;72.90;99394.69;4190921;34;32993;-95
2020/12/08 09:56:56;;;;;;;18.85;13.90;;;;;;;6.23;72.49;99392.00;4193193;34;33025;-93
2020/12/08 09:59:28;;;;;;;17.02;12.77;;;;;;;6.67;71.30;99388.97;4194330;34;34571;-93
2020/12/08 10:02:02;;;;;;;16.23;12.45;;;;;;;6.51;71.25;99389.81;4203687;34;34991;-94
2020/12/08 10:05:11;;;;;;;12.15;9.88;;;;;;;6.55;71.38;99388.47;4153697;34;35893;-95
2020/12/08 10:07:44;;;;;;;11.65;10.45;;;;;;;6.63;70.71;99387.62;4179153;34;32663;-94
2020/12/08 10:10:38;;;;;;;11.10;9.65;;;;;;;6.46;70.86;99382.28;4188393;34;34439;-96
2020/12/08 10:13:12;;;;;;;16.27;12.05;;;;;;;6.16;72.05;99395.38;4178169;34;34647;-93
2020/12/08 10:15:44;;;;;;;18.17;12.43;;;;;;;6.39;71.48;99386.63;4178597;34;33568;-92
2020/12/08 10:18:16;;;;;;;16.40;12.93;;;;;;;6.28;71.34;99392.38;4198094;34;34681;-93
2020/12/08 10:20:49;;;;;;;15.20;11.65;;;;;;;6.58;71.05;99390.00;4196035;34;34019;-94
2020/12/08 10:23:21;;;;;;;15.38;12.75;;;;;;;6.03;72.42;99386.16;4188397;34;33054;-92
2020/12/08 10:25:54;;;;;;;16.55;13.15;;;;;;;5.92;73.26;99389.97;4188007;34;33538;-96
2020/12/08 10:28:26;;;;;;;18.42;13.05;;;;;;;6.49;71.66;99387.31;4171690;34;34733;-94
2020/12/08 10:30:58;;;;;;;19.50;12.13;;;;;;;6.34;71.44;99381.78;4174966;34;35805;-94
2020/12/08 10:33:30;;;;;;;16.55;12.25;;;;;;;6.30;71.54;99382.28;4196526;34;35242;-92
2020/12/08 10:36:03;;;;;;;14.75;12.00;;;;;;;6.30;72.15;99379.59;4188356;34;33879;-96
2020/12/08 10:38:35;;;;;;;13.27;11.43;;;;;;;5.93;73.29;99391.66;4187973;34;34171;-95
2020/12/08 10:41:08;;;;;;;16.20;11.23;;;;;;;6.30;71.46;99382.28;4177560;34;33642;-95
2020/12/08 10:43:40;;;;;;;13.60;10.55;;;;;;;6.19;71.98;99397.72;4188745;34;34128;-95
2020/12/08 10:46:16;;;;;;;10.60;9.50;;;;;;;6.53;70.71;99380.59;4176283;34;32780;-95
2020/12/08 10:48:50;;;;;;;18.15;9.43;;;;;;;6.32;71.10;99372.25;4170816;34;35048;-93
2020/12/08 10:51:23;;;;;;;12.95;7.97;;;;;;;6.37;71.02;99377.94;4167311;34;33988;-92
2020/12/08 10:53:56;;;;;;;9.80;7.68;;;;;;;6.51;71.08;99363.84;4177650;34;33523;-92
2020/12/08 10:56:35;;;;;;;11.27;6.87;;;;;;;6.48;70.36;99364.16;4180687;34;34134;-95
2020/12/08 10:59:10;;;;;;;10.70;7.00;;;;;;;5.83;72.68;99365.81;4177879;34;33183;-93
2020/12/08 11:01:43;;;;;;;9.27;6.95;;;;;;;6.69;70.69;99357.41;4193805;34;34700;-95
2020/12/08 11:04:15;;;;;;;11.52;8.32;;;;;;;6.62;70.85;99361.81;4181934;34;35103;-93
2020/12/08 11:07:05;;;;;;;10.10;7.05;;;;;;;5.94;73.04;99364.66;4196102;34;33020;-94
2020/12/08 11:09:40;;;;;;;9.93;7.28;;;;;;;6.42;71.56;99354.13;4200806;34;34520;-96
2020/12/08 11:12:37;;;;;;;10.20;7.25;;;;;;;6.89;70.11;99347.94;4188899;34;35296;-95
2020/12/08 11:15:10;;;;;;;10.00;7.05;;;;;;;7.13;69.57;99351.56;4176669;34;34252;-96
2020/12/08 11:17:44;;;;;;;10.57;6.47;;;;;;;6.93;70.23;99352.97;4189079;34;33577;-95
2020/12/08 11:20:18;;;;;;;9.98;5.93;;;;;;;6.03;72.23;99354.78;4183760;34;33878;-94
2020/12/08 11:22:51;;;;;;;6.82;6.03;;;;;;;6.42;71.05;99354.13;4182332;34;34318;-95
2020/12/08 11:25:36;;;;;;;7.45;5.75;;;;;;;6.71;70.14;99356.22;4190959;34;35576;-94
2020/12/08 11:28:09;;;;;;;7.22;5.47;;;;;;;6.94;69.05;99352.78;4186690;34;32775;-94
2020/12/08 11:30:42;;;;;;;8.88;6.87;;;;;;;6.44;71.03;99352.09;4176078;34;34361;-95
2020/12/08 11:33:14;;;;;;;7.45;6.00;;;;;;;6.27;71.21;99345.06;4176022;34;34423;-95
2020/12/08 11:35:49;;;;;;;7.87;6.00;;;;;;;6.67;70.08;99341.44;4183846;34;34066;-94
2020/12/08 11:38:21;;;;;;;10.32;5.35;;;;;;;7.32;68.58;99341.38;4178666;34;34023;-96
2020/12/08 11:40:57;;;;;;;9.80;5.82;;;;;;;6.77;69.88;99341.28;4167769;28;33572;-94
2020/12/08 11:43:30;;;;;;;6.85;5.12;;;;;;;7.38;68.10;99335.28;4207079;33;33543;-95
2020/12/08 11:46:04;;;;;;;7.12;4.87;;;;;;;7.14;68.76;99331.72;4204368;33;34288;-95
2020/12/08 11:48:36;;;;;;;4.95;4.05;;;;;;;6.86;69.16;99329.47;4205180;34;32700;-94
2020/12/08 11:51:09;;;;;;;6.10;4.32;;;;;;;7.72;66.96;99323.31;4183578;34;34147;-95
2020/12/08 11:53:41;;;;;;;6.43;4.07;;;;;;;8.30;64.48;99316.44;4195566;33;34570;-94
2020/12/08 11:56:34;;;;;;;10.07;6.10;;;;;;;8.29;65.05;99311.22;4219063;33;33793;-96
2020/12/08 11:59:06;;;;;;;6.15;4.20;;;;;;;8.21;64.48;99312.16;4194887;34;33763;-94
2020/12/08 12:01:39;;;;;;;5.87;4.40;;;;;;;7.96;65.12;99314.22;4193840;34;32104;-95
2020/12/08 12:04:12;;;;;;;5.60;4.30;;;;;;;7.86;65.67;99321.69;4209865;33;34536;-95
2020/12/08 12:06:45;;;;;;;6.53;4.62;;;;;;;8.01;65.11;99306.44;4208435;33;34639;-96
2020/12/08 12:09:19;;;;;;;7.75;4.55;;;;;;;7.86;65.16;99306.41;4198241;33;33155;-95
2020/12/08 12:11:51;;;;;;;6.75;4.50;;;;;;;7.58;66.64;99311.47;4194580;34;34148;-92
2020/12/08 12:14:47;;;;;;;7.20;5.40;;;;;;;7.68;66.09;99303.16;4175187;34;34768;-95
2020/12/08 12:17:19;;;;;;;4.55;4.05;;;;;;;8.13;65.29;99296.91;4164223;34;34159;-94
2020/12/08 12:19:52;;;;;;;6.40;4.10;;;;;;;10.54;57.83;99279.94;4143552;34;33613;-96
2020/12/08 12:22:26;;;;;;;5.82;4.30;;;;;;;12.30;52.42;99272.91;4154597;34;34270;-96